createdAt,value
2023-02-11T00:00:37.038Z,83.99
2023-02-11T00:01:37.019Z,83.89
2023-02-11T00:02:37.127Z,83.89
2023-02-11T00:03:37.048Z,83.99
2023-02-11T00:04:36.989Z,83.99
2023-02-11T00:05:36.970Z,84.09
2023-02-11T00:06:36.969Z,84.09
2023-02-11T00:07:36.940Z,84.09
2023-02-11T00:08:36.964Z,84.09
2023-02-11T00:09:36.916Z,84.20
2023-02-11T00:10:36.924Z,84.20
2023-02-11T00:11:36.904Z,84.09
2023-02-11T00:12:36.896Z,84.09
2023-02-11T00:13:36.857Z,84.09
2023-02-11T00:14:36.854Z,84.20
2023-02-11T00:15:36.846Z,84.09
2023-02-11T00:16:36.930Z,84.20
2023-02-11T00:17:36.958Z,84.20
2023-02-11T00:18:36.854Z,84.20
2023-02-11T00:19:36.793Z,84.20
2023-02-11T00:20:36.782Z,84.20
2023-02-11T00:21:36.770Z,84.20
2023-02-11T00:22:36.763Z,84.20
2023-02-11T00:23:36.759Z,84.20
2023-02-11T00:24:36.732Z,84.20
2023-02-11T00:25:36.738Z,84.20
2023-02-11T00:26:36.716Z,84.20
2023-02-11T00:27:36.688Z,84.20
2023-02-11T00:28:36.734Z,84.20
2023-02-11T00:29:36.660Z,84.20
2023-02-11T00:30:36.753Z,84.09
2023-02-11T00:31:36.811Z,84.09
2023-02-11T00:32:36.631Z,84.09
2023-02-11T00:33:36.634Z,84.16
2023-02-11T00:34:36.615Z,84.05
2023-02-11T00:35:36.574Z,84.05
2023-02-11T00:36:36.583Z,84.05
2023-02-11T00:37:36.545Z,84.05
2023-02-11T00:38:36.545Z,84.05
2023-02-11T00:39:36.513Z,84.05
2023-02-11T00:40:36.513Z,84.05
2023-02-11T00:41:36.536Z,84.05
2023-02-11T00:42:36.501Z,83.95
2023-02-11T00:43:36.471Z,83.95
2023-02-11T00:44:36.482Z,84.05
2023-02-11T00:45:36.449Z,84.05
2023-02-11T00:46:36.474Z,84.05
2023-02-11T00:47:36.433Z,84.05
2023-02-11T00:48:36.437Z,84.05
2023-02-11T00:49:36.441Z,84.05
2023-02-11T00:50:36.389Z,84.05
2023-02-11T00:51:36.392Z,84.16
2023-02-11T00:52:36.392Z,84.16
2023-02-11T00:53:36.378Z,84.05
2023-02-11T00:54:36.337Z,83.95
2023-02-11T00:55:36.331Z,83.95
2023-02-11T00:56:36.317Z,83.95
2023-02-11T00:57:36.310Z,83.95
2023-02-11T00:58:36.299Z,83.95
2023-02-11T00:59:36.294Z,83.95
2023-02-11T01:00:36.275Z,83.95
2023-02-11T01:01:36.324Z,83.91
2023-02-11T01:02:36.257Z,83.95
2023-02-11T01:03:36.233Z,84.01
2023-02-11T01:04:36.218Z,84.01
2023-02-11T01:05:36.264Z,83.91
2023-02-11T01:06:36.197Z,83.91
2023-02-11T01:07:36.187Z,83.91
2023-02-11T01:08:36.166Z,83.91
2023-02-11T01:09:36.159Z,83.91
2023-02-11T01:10:36.162Z,84.01
2023-02-11T01:11:36.146Z,84.12
2023-02-11T01:12:36.639Z,84.22
2023-02-11T01:13:36.115Z,84.33
2023-02-11T01:14:36.085Z,84.53
2023-02-11T01:15:36.148Z,84.74
2023-02-11T01:16:36.072Z,84.84
2023-02-11T01:17:36.065Z,84.74
2023-02-11T01:18:36.044Z,84.74
2023-02-11T01:19:36.035Z,84.84
2023-02-11T01:20:36.659Z,84.74
2023-02-11T01:21:36.139Z,84.64
2023-02-11T01:22:35.995Z,84.53
2023-02-11T01:23:36.032Z,84.43
2023-02-11T01:24:35.977Z,84.33
2023-02-11T01:25:35.991Z,84.19
2023-02-11T01:26:35.958Z,84.08
2023-02-11T01:27:35.944Z,83.98
2023-02-11T01:28:35.940Z,83.98
2023-02-11T01:29:35.921Z,83.87
2023-02-11T01:30:35.894Z,83.87
2023-02-11T01:31:36.070Z,83.87
2023-02-11T01:32:35.873Z,83.87
2023-02-11T01:33:35.887Z,83.87
2023-02-11T01:34:35.843Z,83.87
2023-02-11T01:35:35.847Z,83.77
2023-02-11T01:36:35.831Z,83.77
2023-02-11T01:37:35.817Z,83.67
2023-02-11T01:38:35.789Z,83.56
2023-02-11T01:39:35.789Z,83.56
2023-02-11T01:40:35.776Z,83.56
2023-02-11T01:41:35.861Z,83.56
2023-02-11T01:42:35.745Z,83.46
2023-02-11T01:43:35.757Z,83.46
2023-02-11T01:44:35.731Z,83.46
2023-02-11T01:45:35.708Z,83.46
2023-02-11T01:46:35.963Z,83.56
2023-02-11T01:47:35.690Z,83.56
2023-02-11T01:48:35.667Z,83.67
2023-02-11T01:49:35.678Z,83.63
2023-02-11T01:50:35.638Z,83.63
2023-02-11T01:51:35.668Z,83.63
2023-02-11T01:52:35.697Z,83.63
2023-02-11T01:53:35.629Z,83.63
2023-02-11T01:54:35.629Z,83.63
2023-02-11T01:55:35.600Z,83.53
2023-02-11T01:56:35.577Z,83.63
2023-02-11T01:57:35.566Z,83.73
2023-02-11T01:58:35.553Z,83.73
2023-02-11T01:59:35.541Z,83.73
2023-02-11T02:00:35.526Z,83.73
2023-02-11T02:01:35.679Z,83.73
2023-02-11T02:02:35.501Z,83.73
2023-02-11T02:03:35.517Z,83.73
2023-02-11T02:04:35.476Z,83.84
2023-02-11T02:05:35.487Z,83.73
2023-02-11T02:06:35.453Z,83.84
2023-02-11T02:07:35.445Z,83.84
2023-02-11T02:08:35.435Z,83.84
2023-02-11T02:09:35.427Z,83.84
2023-02-11T02:10:35.391Z,83.84
2023-02-11T02:11:35.401Z,83.84
2023-02-11T02:12:35.360Z,83.94
2023-02-11T02:13:35.369Z,83.94
2023-02-11T02:14:35.339Z,83.94
2023-02-11T02:15:35.349Z,84.05
2023-02-11T02:16:35.396Z,84.05
2023-02-11T02:17:35.319Z,84.05
2023-02-11T02:18:35.295Z,84.05
2023-02-11T02:19:35.293Z,84.00
2023-02-11T02:20:35.285Z,84.00
2023-02-11T02:21:35.264Z,84.11
2023-02-11T02:22:35.239Z,84.11
2023-02-11T02:23:35.234Z,84.21
2023-02-11T02:24:35.213Z,84.11
2023-02-11T02:25:35.205Z,84.11
2023-02-11T02:26:35.203Z,84.11
2023-02-11T02:27:35.187Z,84.21
2023-02-11T02:28:35.170Z,84.31
2023-02-11T02:29:35.167Z,84.31
2023-02-11T02:30:35.154Z,84.31
2023-02-11T02:31:35.178Z,84.31
2023-02-11T02:32:35.128Z,84.31
2023-02-11T02:33:35.110Z,84.42
2023-02-11T02:34:35.089Z,84.42
2023-02-11T02:35:35.128Z,84.42
2023-02-11T02:36:35.116Z,84.42
2023-02-11T02:37:35.073Z,84.52
2023-02-11T02:38:35.049Z,84.63
2023-02-11T02:39:35.029Z,84.73
2023-02-11T02:40:35.024Z,84.63
2023-02-11T02:41:35.021Z,84.59
2023-02-11T02:42:34.986Z,84.59
2023-02-11T02:43:34.985Z,84.48
2023-02-11T02:44:34.992Z,84.59
2023-02-11T02:45:34.955Z,84.59
2023-02-11T02:46:35.039Z,84.59
2023-02-11T02:47:34.938Z,84.69
2023-02-11T02:48:34.916Z,84.69
2023-02-11T02:49:34.913Z,84.80
2023-02-11T02:50:34.902Z,84.80
2023-02-11T02:51:34.896Z,84.80
2023-02-11T02:52:34.861Z,84.80
2023-02-11T02:53:34.859Z,84.80
2023-02-11T02:54:34.942Z,84.80
2023-02-11T02:55:34.846Z,84.90
2023-02-11T02:56:34.835Z,84.90
2023-02-11T02:57:34.816Z,84.80
2023-02-11T02:58:34.788Z,84.80
2023-02-11T02:59:34.805Z,84.80
2023-02-11T03:00:34.799Z,84.90
2023-02-11T03:01:34.760Z,85.00
2023-02-11T03:02:34.749Z,85.00
2023-02-11T03:03:34.769Z,85.00
2023-02-11T03:04:34.720Z,85.06
2023-02-11T03:05:34.733Z,85.06
2023-02-11T03:06:34.680Z,84.96
2023-02-11T03:07:34.688Z,85.06
2023-02-11T03:08:34.668Z,85.06
2023-02-11T03:09:34.653Z,85.06
2023-02-11T03:10:34.630Z,85.17
2023-02-11T03:11:34.633Z,85.27
2023-02-11T03:12:34.618Z,85.17
2023-02-11T03:13:34.611Z,85.17
2023-02-11T03:14:34.582Z,85.17
2023-02-11T03:15:34.582Z,85.27
2023-02-11T03:16:34.715Z,85.27
2023-02-11T03:17:34.578Z,85.38
2023-02-11T03:18:34.527Z,85.48
2023-02-11T03:19:34.542Z,85.48
2023-02-11T03:20:34.508Z,85.58
2023-02-11T03:21:34.516Z,85.58
2023-02-11T03:22:34.488Z,85.58
2023-02-11T03:23:34.479Z,85.48
2023-02-11T03:24:34.461Z,85.58
2023-02-11T03:25:34.460Z,85.69
2023-02-11T03:26:34.441Z,85.69
2023-02-11T03:27:34.463Z,85.69
2023-02-11T03:28:34.505Z,85.69
2023-02-11T03:29:34.426Z,85.69
2023-02-11T03:30:34.393Z,85.79
2023-02-11T03:31:34.526Z,85.89
2023-02-11T03:32:34.365Z,86.00
2023-02-11T03:33:34.362Z,86.00
2023-02-11T03:34:34.334Z,86.10
2023-02-11T03:35:34.334Z,86.10
2023-02-11T03:36:34.316Z,86.10
2023-02-11T03:37:34.315Z,86.10
2023-02-11T03:38:34.294Z,86.10
2023-02-11T03:39:34.295Z,86.10
2023-02-11T03:40:34.266Z,86.10
2023-02-11T03:41:34.254Z,86.21
2023-02-11T03:42:34.255Z,86.21
2023-02-11T03:43:34.232Z,86.21
2023-02-11T03:44:34.219Z,86.31
2023-02-11T03:45:34.211Z,86.31
2023-02-11T03:46:34.203Z,86.31
2023-02-11T03:47:34.195Z,86.41
2023-02-11T03:48:34.172Z,86.41
2023-02-11T03:49:34.169Z,86.41
2023-02-11T03:50:34.144Z,86.41
2023-02-11T03:51:34.131Z,86.52
2023-02-11T03:52:34.120Z,86.62
2023-02-11T03:53:34.103Z,86.62
2023-02-11T03:54:34.088Z,86.72
2023-02-11T03:55:34.084Z,86.72
2023-02-11T03:56:34.064Z,86.83
2023-02-11T03:57:34.073Z,86.83
2023-02-11T03:58:34.031Z,86.83
2023-02-11T03:59:34.030Z,86.83
2023-02-11T04:00:34.016Z,87.04
2023-02-11T04:01:34.081Z,86.99
2023-02-11T04:02:33.998Z,86.99
2023-02-11T04:03:34.080Z,86.99
2023-02-11T04:04:33.959Z,86.99
2023-02-11T04:05:33.951Z,87.20
2023-02-11T04:06:33.928Z,87.20
2023-02-11T04:07:33.937Z,87.20
2023-02-11T04:08:33.906Z,87.20
2023-02-11T04:09:33.904Z,87.20
2023-02-11T04:10:33.885Z,87.30
2023-02-11T04:11:33.877Z,87.30
2023-02-11T04:12:33.879Z,87.30
2023-02-11T04:13:33.853Z,87.30
2023-02-11T04:14:33.826Z,87.41
2023-02-11T04:15:33.833Z,87.62
2023-02-11T04:16:33.853Z,87.72
2023-02-11T04:17:33.847Z,87.82
2023-02-11T04:18:33.781Z,87.82
2023-02-11T04:19:33.800Z,87.82
2023-02-11T04:20:33.819Z,87.82
2023-02-11T04:21:33.756Z,87.93
2023-02-11T04:22:33.741Z,87.93
2023-02-11T04:23:33.738Z,88.13
2023-02-11T04:24:33.711Z,88.13
2023-02-11T04:25:33.706Z,88.13
2023-02-11T04:26:33.689Z,88.24
2023-02-11T04:27:33.704Z,88.24
2023-02-11T04:28:33.749Z,88.24
2023-02-11T04:29:33.653Z,88.24
2023-02-11T04:30:33.632Z,88.34
2023-02-11T04:31:33.641Z,88.34
2023-02-11T04:32:33.612Z,88.34
2023-02-11T04:33:33.610Z,88.55
2023-02-11T04:34:33.590Z,88.55
2023-02-11T04:35:33.596Z,88.55
2023-02-11T04:36:33.560Z,88.55
2023-02-11T04:37:33.583Z,88.55
2023-02-11T04:38:33.569Z,88.65
2023-02-11T04:39:33.549Z,88.96
2023-02-11T04:40:33.553Z,89.17
2023-02-11T04:41:33.518Z,89.48
2023-02-11T04:42:33.486Z,89.69
2023-02-11T04:43:33.480Z,89.79
2023-02-11T04:44:33.468Z,89.89
2023-02-11T04:45:33.459Z,90.00
2023-02-11T04:46:33.502Z,90.10
2023-02-11T04:47:33.506Z,90.10
2023-02-11T04:48:33.407Z,90.10
2023-02-11T04:49:33.399Z,90.20
2023-02-11T04:50:33.406Z,90.20
2023-02-11T04:51:33.389Z,90.31
2023-02-11T04:52:33.370Z,90.31
2023-02-11T04:53:33.357Z,90.41
2023-02-11T04:54:33.336Z,90.52
2023-02-11T04:55:33.329Z,90.52
2023-02-11T04:56:33.306Z,90.52
2023-02-11T04:57:33.329Z,90.52
2023-02-11T04:58:33.285Z,90.52
2023-02-11T04:59:33.290Z,90.52
2023-02-11T05:00:33.292Z,90.52
2023-02-11T05:01:33.287Z,90.41
2023-02-11T05:02:33.241Z,90.41
2023-02-11T05:03:33.226Z,90.41
2023-02-11T05:04:33.308Z,90.52
2023-02-11T05:05:33.198Z,90.52
2023-02-11T05:06:33.197Z,90.52
2023-02-11T05:07:33.175Z,90.62
2023-02-11T05:08:33.199Z,90.62
2023-02-11T05:09:33.166Z,90.62
2023-02-11T05:10:33.151Z,90.62
2023-02-11T05:11:33.134Z,90.72
2023-02-11T05:12:33.135Z,90.83
2023-02-11T05:13:33.100Z,91.03
2023-02-11T05:14:33.090Z,91.35
2023-02-11T05:15:33.067Z,91.66
2023-02-11T05:16:33.107Z,91.97
2023-02-11T05:17:33.061Z,92.07
2023-02-11T05:18:33.048Z,92.07
2023-02-11T05:19:33.021Z,92.07
2023-02-11T05:20:33.020Z,92.38
2023-02-11T05:21:33.006Z,92.38
2023-02-11T05:22:33.008Z,92.38
2023-02-11T05:23:32.976Z,92.38
2023-02-11T05:24:32.975Z,92.38
2023-02-11T05:25:32.956Z,92.38
2023-02-11T05:26:32.949Z,92.49
2023-02-11T05:27:32.920Z,92.49
2023-02-11T05:28:32.980Z,92.49
2023-02-11T05:29:32.901Z,92.69
2023-02-11T05:30:32.945Z,92.69
2023-02-11T05:31:32.898Z,92.80
2023-02-11T05:32:32.869Z,92.80
2023-02-11T05:33:32.855Z,92.80
2023-02-11T05:34:32.846Z,92.90
2023-02-11T05:35:32.833Z,93.00
2023-02-11T05:36:33.525Z,93.00
2023-02-11T05:37:32.848Z,93.10
2023-02-11T05:38:33.344Z,93.21
2023-02-11T05:39:32.781Z,93.21
2023-02-11T05:40:32.782Z,93.21
2023-02-11T05:41:32.755Z,93.31
2023-02-11T05:42:32.766Z,93.31
2023-02-11T05:43:32.733Z,93.52
2023-02-11T05:44:32.728Z,93.62
2023-02-11T05:45:32.714Z,93.62
2023-02-11T05:46:32.762Z,93.73
2023-02-11T05:47:32.679Z,93.73
2023-02-11T05:48:32.681Z,93.83
2023-02-11T05:49:32.676Z,93.83
2023-02-11T05:50:32.661Z,93.83
2023-02-11T05:51:39.639Z,94.14
2023-02-11T05:52:32.642Z,94.35
2023-02-11T05:53:32.623Z,94.66
2023-02-11T05:54:34.318Z,94.76
2023-02-11T05:55:32.584Z,94.87
2023-02-11T05:56:32.627Z,94.97
2023-02-11T05:57:32.572Z,94.97
2023-02-11T05:58:32.557Z,94.97
2023-02-11T05:59:32.566Z,95.07
2023-02-11T06:00:32.535Z,95.18
2023-02-11T06:01:32.548Z,95.28
2023-02-11T06:02:32.612Z,95.28
2023-02-11T06:03:32.543Z,95.39
2023-02-11T06:04:32.510Z,95.39
2023-02-11T06:05:32.536Z,95.49
2023-02-11T06:06:32.477Z,95.59
2023-02-11T06:07:32.444Z,95.59
2023-02-11T06:08:32.456Z,95.59
2023-02-11T06:09:32.447Z,95.54
2023-02-11T06:10:32.434Z,95.65
2023-02-11T06:11:32.403Z,95.75
2023-02-11T06:12:32.417Z,95.65
2023-02-11T06:13:32.389Z,95.65
2023-02-11T06:14:32.362Z,95.54
2023-02-11T06:15:32.393Z,95.54
2023-02-11T06:16:32.516Z,95.54
2023-02-11T06:17:32.322Z,95.65
2023-02-11T06:18:32.330Z,95.54
2023-02-11T06:19:32.284Z,95.65
2023-02-11T06:20:32.301Z,95.65
2023-02-11T06:21:43.408Z,95.65
2023-02-11T06:22:34.573Z,95.65
2023-02-11T06:23:32.277Z,95.65
2023-02-11T06:24:58.613Z,95.65
2023-02-11T06:25:33.214Z,95.75
2023-02-11T06:26:32.266Z,95.71
2023-02-11T06:27:32.210Z,95.61
2023-02-11T06:28:32.288Z,95.71
2023-02-11T06:29:32.167Z,95.81
2023-02-11T06:30:32.193Z,95.92
2023-02-11T06:31:32.266Z,95.92
2023-02-11T06:32:47.618Z,96.02
2023-02-11T06:33:33.126Z,96.12
2023-02-11T06:34:32.137Z,96.23
2023-02-11T06:35:32.107Z,96.33
2023-02-11T06:36:32.094Z,96.44
2023-02-11T06:37:32.092Z,96.54
2023-02-11T06:38:32.103Z,96.64
2023-02-11T06:39:32.049Z,96.75
2023-02-11T06:40:32.081Z,96.75
2023-02-11T06:41:32.033Z,96.95
2023-02-11T06:42:32.018Z,97.06
2023-02-11T06:43:32.013Z,97.16
2023-02-11T06:44:31.989Z,97.41
2023-02-11T06:45:31.991Z,97.57
2023-02-11T06:46:32.140Z,97.67
2023-02-11T06:47:31.967Z,97.67
2023-02-11T06:48:31.950Z,97.88
2023-02-11T06:49:32.040Z,98.03
2023-02-11T06:50:31.930Z,98.03
2023-02-11T06:51:31.895Z,98.13
2023-02-11T06:52:31.920Z,98.13
2023-02-11T06:53:31.874Z,98.34
2023-02-11T06:54:31.884Z,98.30
2023-02-11T06:55:31.858Z,98.44
2023-02-11T06:56:31.859Z,98.40
2023-02-11T06:57:31.825Z,98.40
2023-02-11T06:58:31.839Z,98.40
2023-02-11T06:59:31.808Z,98.40
2023-02-11T07:00:31.825Z,98.40
2023-02-11T07:01:31.810Z,98.30
2023-02-11T07:02:31.836Z,98.30
2023-02-11T07:03:31.746Z,98.30
2023-02-11T07:04:31.834Z,98.30
2023-02-11T07:05:31.728Z,98.19
2023-02-11T07:06:31.795Z,98.19
2023-02-11T07:07:34.149Z,98.30
2023-02-11T07:08:31.736Z,98.30
2023-02-11T07:09:31.705Z,98.30
2023-02-11T07:10:31.681Z,98.30
2023-02-11T07:11:31.672Z,98.30
2023-02-11T07:12:31.769Z,98.09
2023-02-11T07:13:31.630Z,97.88
2023-02-11T07:14:31.798Z,97.78
2023-02-11T07:15:31.617Z,97.74
2023-02-11T07:16:31.681Z,97.42
2023-02-11T07:17:31.584Z,97.22
2023-02-11T07:18:31.595Z,97.32
2023-02-11T07:19:31.551Z,97.32
2023-02-11T07:20:31.558Z,97.32
2023-02-11T07:21:31.613Z,97.11
2023-02-11T07:22:31.566Z,96.80
2023-02-11T07:23:31.531Z,96.80
2023-02-11T07:24:31.548Z,96.80
2023-02-11T07:25:31.498Z,96.80
2023-02-11T07:26:31.520Z,96.59
2023-02-11T07:27:31.462Z,96.70
2023-02-11T07:28:31.580Z,96.70
2023-02-11T07:29:31.433Z,96.91
2023-02-11T07:30:31.462Z,96.91
2023-02-11T07:31:31.564Z,96.80
2023-02-11T07:32:31.416Z,96.80
2023-02-11T07:33:31.378Z,96.80
2023-02-11T07:34:31.451Z,96.80
2023-02-11T07:35:31.369Z,96.70
2023-02-11T07:36:31.367Z,96.70
2023-02-11T07:37:31.374Z,96.70
2023-02-11T07:38:31.398Z,96.59
2023-02-11T07:39:31.490Z,96.59
2023-02-11T07:40:31.316Z,96.49
2023-02-11T07:41:31.430Z,96.49
2023-02-11T07:42:31.303Z,96.39
2023-02-11T07:43:31.277Z,96.39
2023-02-11T07:44:31.290Z,96.29
2023-02-11T07:45:31.246Z,96.29
2023-02-11T07:46:31.343Z,96.29
2023-02-11T07:47:31.234Z,96.14
2023-02-11T07:48:31.229Z,96.14
2023-02-11T07:49:31.188Z,95.94
2023-02-11T07:50:31.195Z,95.94
2023-02-11T07:51:31.247Z,95.94
2023-02-11T07:52:31.176Z,95.94
2023-02-11T07:53:31.175Z,95.94
2023-02-11T07:54:31.142Z,95.94
2023-02-11T07:55:31.280Z,95.94
2023-02-11T07:56:31.173Z,95.73
2023-02-11T07:57:31.118Z,95.73
2023-02-11T07:58:31.183Z,95.73
2023-02-11T07:59:31.100Z,95.73
2023-02-11T08:00:31.085Z,95.73
2023-02-11T08:01:31.083Z,95.73
2023-02-11T08:02:31.128Z,95.83
2023-02-11T08:03:31.141Z,96.03
2023-02-11T08:04:31.078Z,96.20
2023-02-11T08:05:31.029Z,95.78
2023-02-11T08:06:31.024Z,95.57
2023-02-11T08:07:30.984Z,95.48
2023-02-11T08:08:30.996Z,95.48
2023-02-11T08:09:34.129Z,95.57
2023-02-11T08:10:30.999Z,95.57
2023-02-11T08:11:30.989Z,95.57
2023-02-11T08:12:31.037Z,95.57
2023-02-11T08:13:30.916Z,95.57
2023-02-11T08:14:30.943Z,95.68
2023-02-11T08:15:31.065Z,95.78
2023-02-11T08:16:31.006Z,95.53
2023-02-11T08:17:30.889Z,95.43
2023-02-11T08:18:30.914Z,95.22
2023-02-11T08:19:32.033Z,95.22
2023-02-11T08:20:30.826Z,95.48
2023-02-11T08:21:30.800Z,95.57
2023-02-11T08:22:30.794Z,95.53
2023-02-11T08:23:30.770Z,95.64
2023-02-11T08:24:30.788Z,95.64
2023-02-11T08:25:30.744Z,95.64
2023-02-11T08:26:30.733Z,95.64
2023-02-11T08:27:30.738Z,95.74
2023-02-11T08:28:30.778Z,95.74
2023-02-11T08:29:30.890Z,95.84
2023-02-11T08:30:30.733Z,95.95
2023-02-11T08:31:30.862Z,95.95
2023-02-11T08:32:30.660Z,95.95
2023-02-11T08:33:30.655Z,96.05
2023-02-11T08:34:30.642Z,96.36
2023-02-11T08:35:30.607Z,96.36
2023-02-11T08:36:30.614Z,96.47
2023-02-11T08:37:32.990Z,96.67
2023-02-11T08:38:30.575Z,96.88
2023-02-11T08:39:30.560Z,96.98
2023-02-11T08:40:30.590Z,96.98
2023-02-11T08:41:30.559Z,97.19
2023-02-11T08:42:30.575Z,97.39
2023-02-11T08:43:30.569Z,97.50
2023-02-11T08:44:30.614Z,97.60
2023-02-11T08:45:30.597Z,97.71
2023-02-11T08:46:30.744Z,97.71
2023-02-11T08:47:30.644Z,97.81
2023-02-11T08:48:30.715Z,97.81
2023-02-11T08:49:30.486Z,97.81
2023-02-11T08:50:30.526Z,97.91
2023-02-11T08:51:30.831Z,97.81
2023-02-11T08:52:30.940Z,97.91
2023-02-11T08:53:30.948Z,97.81
2023-02-11T08:54:30.492Z,97.81
2023-02-11T08:55:30.396Z,97.91
2023-02-11T08:56:30.404Z,97.91
2023-02-11T08:57:30.380Z,97.91
2023-02-11T08:58:31.090Z,97.91
2023-02-11T08:59:30.574Z,98.01
2023-02-11T09:00:31.159Z,98.11
2023-02-11T09:01:31.088Z,98.11
2023-02-11T09:02:30.376Z,98.22
2023-02-11T09:03:31.043Z,98.22
2023-02-11T09:04:30.301Z,98.32
2023-02-11T09:05:31.340Z,98.43
2023-02-11T09:06:31.009Z,98.43
2023-02-11T09:07:30.249Z,98.43
2023-02-11T09:08:30.219Z,98.53
2023-02-11T09:09:30.206Z,98.53
2023-02-11T09:10:30.261Z,98.63
2023-02-11T09:11:30.449Z,98.63
2023-02-11T09:12:30.668Z,98.63
2023-02-11T09:13:30.940Z,98.63
2023-02-11T09:14:30.158Z,98.63
2023-02-11T09:15:30.455Z,98.53
2023-02-11T09:16:30.204Z,98.53
2023-02-11T09:17:30.080Z,98.53
2023-02-11T09:18:30.097Z,98.53
2023-02-11T09:19:30.142Z,98.53
2023-02-11T09:20:30.171Z,98.53
2023-02-11T09:21:30.047Z,98.53
2023-02-11T09:22:30.031Z,98.43
2023-02-11T09:23:30.060Z,98.43
2023-02-11T09:24:30.080Z,98.32
2023-02-11T09:25:30.144Z,98.22
2023-02-11T09:26:30.188Z,98.22
2023-02-11T09:27:30.169Z,98.11
2023-02-11T09:28:30.061Z,98.22
2023-02-11T09:29:29.970Z,98.11
2023-02-11T09:30:30.376Z,98.11
2023-02-11T09:31:30.423Z,98.07
2023-02-11T09:32:30.705Z,98.07
2023-02-11T09:33:30.122Z,97.97
2023-02-11T09:34:29.879Z,97.97
2023-02-11T09:35:30.255Z,97.97
2023-02-11T09:36:29.865Z,97.97
2023-02-11T09:37:30.023Z,97.97
2023-02-11T09:38:29.976Z,97.86
2023-02-11T09:39:29.965Z,97.86
2023-02-11T09:40:29.848Z,97.76
2023-02-11T09:41:29.771Z,97.76
2023-02-11T09:42:29.734Z,97.76
2023-02-11T09:43:29.788Z,97.76
2023-02-11T09:44:29.727Z,97.76
2023-02-11T09:45:29.717Z,97.76
2023-02-11T09:46:29.835Z,97.76
2023-02-11T09:47:29.704Z,97.76
2023-02-11T09:48:29.685Z,97.66
2023-02-11T09:49:29.810Z,97.66
2023-02-11T09:50:29.642Z,97.55
2023-02-11T09:51:29.647Z,97.55
2023-02-11T09:52:29.715Z,97.41
2023-02-11T09:53:29.644Z,97.30
2023-02-11T09:54:29.665Z,97.30
2023-02-11T09:55:29.593Z,97.20
2023-02-11T09:56:29.610Z,97.20
2023-02-11T09:57:29.580Z,97.20
2023-02-11T09:58:29.570Z,97.20
2023-02-11T09:59:29.556Z,97.20
2023-02-11T10:00:29.532Z,97.20
2023-02-11T10:01:29.624Z,97.20
2023-02-11T10:02:29.492Z,97.20
2023-02-11T10:03:29.574Z,97.20
2023-02-11T10:04:29.629Z,97.30
2023-02-11T10:05:29.468Z,97.41
2023-02-11T10:06:29.493Z,97.51
2023-02-11T10:07:29.468Z,97.61
2023-02-11T10:08:29.419Z,97.72
2023-02-11T10:09:29.453Z,97.92
2023-02-11T10:10:29.380Z,98.02
2023-02-11T10:11:31.869Z,98.13
2023-02-11T10:12:29.362Z,98.13
2023-02-11T10:13:29.380Z,98.02
2023-02-11T10:14:29.361Z,98.13
2023-02-11T10:15:29.387Z,98.23
2023-02-11T10:16:29.321Z,98.33
2023-02-11T10:17:29.350Z,98.33
2023-02-11T10:18:29.544Z,98.44
2023-02-11T10:19:29.282Z,98.54
2023-02-11T10:20:29.293Z,98.85
2023-02-11T10:21:29.281Z,98.96
2023-02-11T10:22:29.232Z,99.06
2023-02-11T10:23:29.241Z,99.26
2023-02-11T10:24:29.273Z,99.37
2023-02-11T10:25:29.876Z,99.57
2023-02-11T10:26:29.371Z,99.78
2023-02-11T10:27:29.190Z,99.88
2023-02-11T10:28:29.220Z,99.88
2023-02-11T10:29:29.170Z,99.99
2023-02-11T10:30:29.146Z,99.99
2023-02-11T10:31:29.299Z,99.99
2023-02-11T10:32:29.115Z,99.99
2023-02-11T10:33:29.137Z,99.99
2023-02-11T10:34:29.141Z,99.99
2023-02-11T10:35:29.906Z,99.99
2023-02-11T10:36:29.067Z,99.99
2023-02-11T10:37:29.065Z,99.99
2023-02-11T10:38:29.051Z,99.99
2023-02-11T10:39:29.036Z,99.99
2023-02-11T10:40:29.032Z,99.99
2023-02-11T10:41:29.024Z,99.99
2023-02-11T10:42:29.010Z,99.99
2023-02-11T10:43:28.984Z,99.99
2023-02-11T10:44:28.996Z,99.99
2023-02-11T10:45:29.156Z,99.99
2023-02-11T10:46:29.015Z,99.99
2023-02-11T10:47:28.957Z,99.99
2023-02-11T10:48:28.925Z,99.99
2023-02-11T10:49:28.916Z,99.99
2023-02-11T10:50:28.871Z,99.99
2023-02-11T10:51:28.897Z,99.99
2023-02-11T10:52:28.857Z,99.99
2023-02-11T10:53:28.906Z,99.99
2023-02-11T10:54:28.842Z,99.99
2023-02-11T10:55:28.856Z,99.99
2023-02-11T10:56:28.847Z,99.99
2023-02-11T10:57:28.800Z,99.99
2023-02-11T10:58:28.810Z,99.99
2023-02-11T10:59:28.847Z,99.99
2023-02-11T11:00:28.772Z,99.99
2023-02-11T11:01:28.972Z,99.99
2023-02-11T11:02:28.726Z,99.99
2023-02-11T11:03:28.773Z,99.99
2023-02-11T11:04:28.776Z,99.99
2023-02-11T11:05:28.726Z,99.99
2023-02-11T11:06:28.682Z,99.99
2023-02-11T11:07:28.733Z,99.99
2023-02-11T11:08:28.651Z,99.99
2023-02-11T11:09:28.654Z,99.99
2023-02-11T11:10:28.805Z,99.99
2023-02-11T11:11:28.624Z,99.99
2023-02-11T11:12:28.617Z,99.99
2023-02-11T11:13:28.624Z,99.99
2023-02-11T11:14:28.596Z,99.99
2023-02-11T11:15:28.590Z,99.99
2023-02-11T11:16:28.638Z,99.99
2023-02-11T11:17:28.579Z,99.99
2023-02-11T11:18:28.553Z,99.99
2023-02-11T11:19:28.522Z,99.99
2023-02-11T11:20:28.525Z,99.99
2023-02-11T11:21:28.497Z,99.99
2023-02-11T11:22:28.485Z,99.99
2023-02-11T11:23:28.495Z,99.99
2023-02-11T11:24:28.667Z,99.99
2023-02-11T11:25:28.481Z,99.99
2023-02-11T11:26:28.461Z,99.99
2023-02-11T11:27:28.424Z,99.99
2023-02-11T11:28:28.424Z,99.99
2023-02-11T11:29:28.441Z,99.99
2023-02-11T11:30:28.412Z,99.99
2023-02-11T11:31:28.571Z,99.99
2023-02-11T11:32:28.355Z,99.99
2023-02-11T11:33:28.382Z,99.99
2023-02-11T11:34:28.383Z,99.99
2023-02-11T11:35:28.370Z,99.99
2023-02-11T11:36:28.311Z,99.99
2023-02-11T11:37:28.287Z,99.99
2023-02-11T11:38:28.315Z,99.99
2023-02-11T11:39:28.272Z,99.99
2023-02-11T11:40:28.267Z,99.99
2023-02-11T11:41:28.260Z,99.99
2023-02-11T11:42:28.226Z,99.99
2023-02-11T11:43:28.239Z,99.99
2023-02-11T11:44:28.194Z,99.99
2023-02-11T11:45:28.220Z,99.99
2023-02-11T11:46:28.315Z,99.99
2023-02-11T11:47:28.169Z,99.99
2023-02-11T11:48:28.168Z,99.99
2023-02-11T11:49:28.155Z,99.99
2023-02-11T11:50:28.134Z,99.99
2023-02-11T11:51:28.117Z,99.99
2023-02-11T11:52:28.125Z,99.99
2023-02-11T11:53:28.104Z,99.99
2023-02-11T11:54:28.112Z,99.99
2023-02-11T11:55:28.086Z,99.99
2023-02-11T11:56:28.064Z,99.99
2023-02-11T11:57:28.038Z,99.99
2023-02-11T11:58:28.048Z,99.99
2023-02-11T11:59:28.049Z,99.99
2023-02-11T12:00:28.015Z,99.99
2023-02-11T12:01:28.026Z,99.99
2023-02-11T12:02:27.976Z,99.99
2023-02-11T12:03:28.078Z,99.99
2023-02-11T12:04:27.987Z,99.99
2023-02-11T12:05:27.929Z,99.99
2023-02-11T12:06:27.924Z,99.99
2023-02-11T12:07:27.930Z,99.99
2023-02-11T12:08:27.973Z,99.99
2023-02-11T12:09:27.874Z,99.99
2023-02-11T12:10:27.875Z,99.99
2023-02-11T12:11:27.863Z,99.99
2023-02-11T12:12:27.841Z,99.99
2023-02-11T12:13:27.842Z,99.99
2023-02-11T12:14:27.821Z,99.99
2023-02-11T12:15:27.818Z,99.99
2023-02-11T12:16:27.808Z,99.99
2023-02-11T12:17:27.785Z,99.99
2023-02-11T12:18:27.793Z,99.99
2023-02-11T12:19:27.800Z,99.99
2023-02-11T12:20:27.745Z,99.99
2023-02-11T12:21:27.756Z,99.99
2023-02-11T12:22:27.713Z,99.99
2023-02-11T12:23:27.732Z,99.99
2023-02-11T12:24:27.708Z,99.99
2023-02-11T12:25:27.677Z,99.99
2023-02-11T12:26:27.682Z,99.99
2023-02-11T12:27:27.681Z,99.99
2023-02-11T12:28:27.713Z,99.99
2023-02-11T12:29:27.643Z,99.99
2023-02-11T12:30:27.624Z,99.99
2023-02-11T12:31:27.774Z,99.99
2023-02-11T12:32:27.596Z,99.99
2023-02-11T12:33:27.601Z,99.99
2023-02-11T12:34:27.603Z,99.99
2023-02-11T12:35:27.562Z,99.99
2023-02-11T12:36:27.599Z,99.99
2023-02-11T12:37:27.568Z,99.99
2023-02-11T12:38:27.510Z,99.99
2023-02-11T12:39:27.516Z,99.99
2023-02-11T12:40:27.497Z,99.99
2023-02-11T12:41:27.479Z,99.99
2023-02-11T12:42:27.481Z,99.99
2023-02-11T12:43:27.465Z,99.99
2023-02-11T12:44:27.577Z,99.99
2023-02-11T12:45:27.571Z,99.99
2023-02-11T12:46:27.417Z,99.99
2023-02-11T12:47:27.472Z,99.99
2023-02-11T12:48:27.432Z,99.99
2023-02-11T12:49:27.585Z,99.99
2023-02-11T12:50:27.353Z,99.99
2023-02-11T12:51:27.361Z,99.99
2023-02-11T12:52:27.329Z,99.99